Weather reports worldwide

Advertisment
Ancona, Italy (16190): temperature & dewpoint: 29.03.2020 00:00:00 - 04.04.2020 00:00:00 (CEST)Ancona, Italy (16190): wind speed: 29.03.2020 00:00:00 - 04.04.2020 00:00:00 (CEST)Ancona, Italy (16190): wind direction: 29.03.2020 00:00:00 - 04.04.2020 00:00:00 (CEST)Ancona, Italy (16190): reduced air pressure: 29.03.2020 00:00:00 - 04.04.2020 00:00:00 (CEST)Ancona, Italy (16190): precipitation: 29.03.2020 00:00:00 - 04.04.2020 00:00:00 (CEST)
Date & Time tt [°C] td [°C] ff [km/h] ff [kn] dd ppp [hPa] rr [mm]
04.04.2020 00:00:00 8,3 2,0 5 3 WSW 1011,6 -
03.04.2020 23:00:00 9,1 2,1 9 5 NNW 1011,4 -
03.04.2020 22:00:00 8,5 2,2 5 3 N 1011,3 -
03.04.2020 21:00:00 8,5 1,3 5 3 N 1010,6 -
03.04.2020 20:00:00 8,6 1,0 5 3 N 1009,8 0,0
03.04.2020 19:00:00 9,9 1,2 8 4 NNE 1009,4 -
03.04.2020 18:00:00 11,3 1,7 5 3 NNW 1009,1 -
03.04.2020 17:00:00 11,2 2,7 9 5 NNE 1009,3 -
03.04.2020 16:00:00 11,5 1,9 13 7 NNE 1009,6 -
03.04.2020 15:00:00 11,8 2,2 4 2 NNE 1009,9 -
03.04.2020 14:00:00 11,4 2,1 13 7 NNE 1010,2 0,0
03.04.2020 13:00:00 11,3 2,0 8 4 NE 1010,3 -
03.04.2020 12:00:00 11,0 1,4 9 5 NE 1010,0 -
03.04.2020 11:00:00 10,6 0,8 8 4 NE 1009,9 -
03.04.2020 10:00:00 10,0 0,2 9 5 E 1009,8 -
03.04.2020 09:00:00 7,8 -2,6 4 2 SSW 1009,5 -
03.04.2020 08:00:00 6,3 -3,7 5 3 SSE 1009,3 0,0
03.04.2020 07:00:00 5,5 -4,2 8 4 S 1008,8 -
03.04.2020 06:00:00 5,3 -4,4 8 4 SSE 1008,5 -
03.04.2020 05:00:00 5,7 -4,3 8 4 S 1008,3 -
03.04.2020 04:00:00 6,2 -4,1 5 3 SSE 1008,1 -
03.04.2020 03:00:00 5,7 -4,0 8 4 S 1008,5 -
03.04.2020 02:00:00 5,8 -4,2 9 5 S 1008,6 0,0
03.04.2020 01:00:00 6,1 -3,9 8 4 S 1008,6 -
03.04.2020 00:00:00 5,4 -4,0 9 5 S 1009,1 -
02.04.2020 23:00:00 7,0 -4,2 5 3 S 1008,8 -
02.04.2020 22:00:00 7,0 -4,0 4 2 S 1008,7 -
02.04.2020 21:00:00 7,0 -4,0 2 1 S 1008,8 -
02.04.2020 20:00:00 7,0 -4,9 5 3 N 1008,3 0,0
02.04.2020 19:00:00 8,2 -4,7 13 7 N 1008,4 -
02.04.2020 18:00:00 9,1 -4,3 11 6 N 1008,6 -
02.04.2020 17:00:00 9,5 -4,2 18 10 N 1008,9 -
02.04.2020 16:00:00 10,0 -3,1 13 7 N 1009,4 -
02.04.2020 15:00:00 10,5 -3,0 15 8 N 1009,9 -
02.04.2020 14:00:00 9,8 -1,1 16 9 NNW 1010,4 0,0
02.04.2020 13:00:00 9,6 0,4 16 9 NNW 1010,6 -
02.04.2020 12:00:00 9,0 -0,2 15 8 NW 1010,7 -
02.04.2020 11:00:00 8,2 -0,4 26 14 NW 1011,1 -
02.04.2020 10:00:00 7,4 -1,2 21 11 WNW 1011,1 -
02.04.2020 09:00:00 5,9 -3,3 15 8 W 1010,9 -
02.04.2020 08:00:00 3,9 -5,2 9 5 WSW 1011,3 0,0
02.04.2020 07:00:00 3,6 -6,2 9 5 WSW 1011,1 -
02.04.2020 06:00:00 3,9 -6,8 13 7 W 1011,3 -
02.04.2020 05:00:00 4,3 -7,0 16 9 W 1011,4 -
02.04.2020 04:00:00 4,5 -6,5 16 9 W 1011,9 -
02.04.2020 03:00:00 4,1 -6,3 9 5 WSW 1012,4 -
02.04.2020 02:00:00 4,3 -5,6 9 5 WSW 1012,7 0,0
02.04.2020 01:00:00 4,7 -5,2 8 4 WSW 1013,1 -
02.04.2020 00:00:00 5,1 -4,6 11 6 W 1013,3 -
01.04.2020 23:00:00 5,4 -4,6 8 4 W 1013,5 -
01.04.2020 22:00:00 6,4 -4,8 16 9 NNW 1013,6 -
01.04.2020 21:00:00 6,6 -4,9 21 11 NNW 1013,5 -
01.04.2020 20:00:00 6,8 -5,4 16 9 N 1013,1 0,0
01.04.2020 19:00:00 7,6 -7,4 18 10 NNE 1013,2 -
01.04.2020 18:00:00 8,4 -8,3 13 7 NNE 1013,4 -
01.04.2020 17:00:00 8,4 -7,1 28 15 N 1013,6 -
01.04.2020 16:00:00 8,8 -6,7 15 8 N 1013,9 -
01.04.2020 15:00:00 8,5 -6,2 21 11 N 1014,1 -
01.04.2020 14:00:00 8,0 -5,2 21 11 N 1014,5 0,0
01.04.2020 13:00:00 6,9 -4,6 18 10 NNE 1014,8 -
01.04.2020 12:00:00 7,1 -5,1 22 12 N 1015,0 -
01.04.2020 11:00:00 7,0 -4,9 16 9 NNE 1015,4 -
01.04.2020 10:00:00 7,7 -4,5 15 8 NE 1015,4 -
01.04.2020 09:00:00 7,3 -4,0 13 7 NNE 1015,3 -
01.04.2020 08:00:00 5,7 -5,1 22 12 NNE 1015,3 0,0
01.04.2020 07:00:00 6,0 -7,4 29 16 NE 1014,7 -
01.04.2020 06:00:00 5,9 -7,8 16 9 NE 1014,6 -
01.04.2020 05:00:00 6,1 -5,4 22 12 NNE 1014,6 -
01.04.2020 04:00:00 5,7 -5,7 26 14 NNE 1015,1 -
01.04.2020 03:00:00 6,0 -5,2 26 14 NNE 1014,9 -
01.04.2020 02:00:00 5,1 -3,6 9 5 NNE 1015,8 0,0
01.04.2020 01:00:00 5,6 -4,1 15 8 NNE 1015,9 -
01.04.2020 00:00:00 6,6 -5,2 11 6 NNE 1015,6 -
31.03.2020 23:00:00 6,6 -4,6 21 11 NNE 1015,6 -
31.03.2020 22:00:00 6,5 -5,6 29 16 NNE 1015,6 -
31.03.2020 21:00:00 7,2 -5,6 34 18 NNE 1015,3 -
31.03.2020 20:00:00 7,2 -6,7 24 13 NNE 1015,1 0,0
31.03.2020 19:00:00 7,4 -7,2 29 16 N 1014,4 -
31.03.2020 18:00:00 7,7 -5,5 34 18 NNE 1014,1 -
31.03.2020 17:00:00 8,1 -5,9 39 21 N 1014,2 -
31.03.2020 16:00:00 7,7 -4,9 29 16 N 1014,9 -
31.03.2020 15:00:00 7,7 -3,6 28 15 NNE 1014,7 -
31.03.2020 14:00:00 8,3 0,4 16 9 N 1014,9 0,0
31.03.2020 13:00:00 7,9 0,1 22 12 N 1015,1 -
31.03.2020 12:00:00 7,0 2,8 8 4 N 1015,5 -
31.03.2020 11:00:00 7,1 1,7 8 4 NNE 1015,3 -
31.03.2020 10:00:00 6,9 2,9 4 2 NNE 1014,9 -
31.03.2020 09:00:00 6,8 1,4 21 11 N 1014,4 -
31.03.2020 08:00:00 6,5 1,6 8 4 N 1014,3 0,0
31.03.2020 07:00:00 7,5 2,3 15 8 NNE 1013,2 -
31.03.2020 06:00:00 8,0 2,0 34 18 NNE 1012,5 -
31.03.2020 05:00:00 8,2 1,7 13 7 NNE 1012,5 -
31.03.2020 04:00:00 9,2 2,7 11 6 NE 1011,8 -
31.03.2020 03:00:00 9,3 3,0 9 5 NE 1011,5 -
31.03.2020 02:00:00 9,6 3,9 8 4 NE 1011,2 0,0
31.03.2020 01:00:00 9,8 4,3 15 8 ENE 1010,9 -
31.03.2020 00:00:00 10,3 3,7 11 6 NE 1010,7 -
30.03.2020 23:00:00 10,6 4,7 5 3 NNW 1010,3 -
30.03.2020 22:00:00 10,9 5,6 5 3 ENE 1010,3 -
30.03.2020 21:00:00 10,9 6,2 8 4 ENE 1009,6 -
30.03.2020 20:00:00 11,1 6,0 5 3 NE 1009,0 0,0
30.03.2020 19:00:00 11,7 5,7 8 4 ENE 1008,7 -
30.03.2020 18:00:00 12,4 6,2 5 3 ENE 1008,1 -
30.03.2020 17:00:00 13,2 7,8 8 4 ENE 1007,8 -
30.03.2020 16:00:00 14,2 7,2 5 3 NNE 1008,0 -
30.03.2020 15:00:00 13,7 5,0 24 13 E 1007,9 -
30.03.2020 14:00:00 13,4 7,3 13 7 E 1008,2 0,0
30.03.2020 13:00:00 13,4 9,8 15 8 E 1008,6 -
30.03.2020 12:00:00 13,4 10,0 18 10 E 1008,8 -
30.03.2020 11:00:00 13,4 9,6 15 8 E 1008,6 -
30.03.2020 10:00:00 12,6 8,6 13 7 ESE 1007,9 -
30.03.2020 09:00:00 12,2 7,7 5 3 E 1007,4 -
30.03.2020 08:00:00 9,1 3,9 4 2 SSE 1007,3 0,0
30.03.2020 07:00:00 10,7 3,9 5 3 SE 1006,8 -
30.03.2020 06:00:00 10,0 3,0 8 4 S 1006,5 -
30.03.2020 05:00:00 9,9 2,4 8 4 S 1006,5 -
30.03.2020 04:00:00 10,3 2,3 2 1 NNE 1006,8 -
30.03.2020 03:00:00 11,4 2,6 11 6 S 1006,8 -
30.03.2020 02:00:00 10,2 0,1 13 7 S 1007,2 0,0
30.03.2020 01:00:00 10,1 0,3 16 9 S 1007,1 -
30.03.2020 00:00:00 9,5 0,8 13 7 SSE 1007,6 -
29.03.2020 23:00:00 9,8 0,6 16 9 S 1007,8 -
29.03.2020 22:00:00 10,8 0,4 13 7 S 1007,5 -
29.03.2020 21:00:00 11,4 0,7 13 7 SSE 1007,3 -
29.03.2020 20:00:00 11,8 -0,8 9 5 S 1006,6 0,0
29.03.2020 19:00:00 13,2 -1,3 13 7 E 1006,5 -
29.03.2020 18:00:00 13,9 0,1 13 7 E 1006,3 -
29.03.2020 17:00:00 14,6 0,3 11 6 E 1006,4 -
29.03.2020 16:00:00 14,6 2,1 11 6 ENE 1006,8 -
29.03.2020 15:00:00 14,9 4,2 4 2 NE 1007,3 -
29.03.2020 14:00:00 14,3 5,8 8 4 NE 1008,0 0,0
29.03.2020 13:00:00 14,5 3,8 5 3 N 1008,4 -
29.03.2020 12:00:00 13,9 3,6 11 6 N 1008,6 -
29.03.2020 11:00:00 13,3 3,8 8 4 NW 1008,6 -
29.03.2020 10:00:00 13,0 4,9 4 2 WSW 1008,7 -
29.03.2020 09:00:00 10,2 4,3 5 3 SW 1008,6 -
29.03.2020 08:00:00 9,1 3,2 5 3 SSW 1008,7 0,0
29.03.2020 07:00:00 8,9 3,2 5 3 WSW 1008,7 -
29.03.2020 06:00:00 9,1 3,4 4 2 SW 1008,7 -
29.03.2020 05:00:00 9,2 3,5 4 2 SW 1009,0 -
29.03.2020 04:00:00 9,4 3,5 8 4 SW 1009,1 -
29.03.2020 03:00:00 9,9 2,9 5 3 SW 1009,3 -
29.03.2020 02:00:00 10,7 2,7 4 2 S 1009,4 0,0
29.03.2020 01:00:00 10,9 2,9 4 2 S 1009,3 -
29.03.2020 00:00:00 - - - - - - -

tt = temperature
td = dewpoint
ff = wind speed
dd = wind direction
ppp = reduced air pressure
rr = precipitation

Next stations